createdAt,value
2023-04-19T00:00:00.473Z,1008.9
2023-04-19T00:01:14.000Z,1008.9
2023-04-19T00:02:29.404Z,1009
2023-04-19T00:03:43.000Z,1009
2023-04-19T00:06:12.000Z,1008.9
2023-04-19T00:07:27.266Z,1009
2023-04-19T00:08:41.741Z,1008.8
2023-04-19T00:11:10.000Z,1008.9
2023-04-19T00:12:25.134Z,1008.9
2023-04-19T00:13:39.000Z,1008.9
2023-04-19T00:14:54.087Z,1008.9
2023-04-19T00:16:08.555Z,1008.9
2023-04-19T00:17:23.022Z,1008.9
2023-04-19T00:18:36.600Z,1008.8
2023-04-19T00:21:05.000Z,1008.8
2023-04-19T00:22:20.006Z,1008.8
2023-04-19T00:23:34.000Z,1008.9
2023-04-19T00:24:48.000Z,1008.8
2023-04-19T00:26:03.000Z,1008.8
2023-04-19T00:27:17.867Z,1008.8
2023-04-19T00:29:46.815Z,1008.8
2023-04-19T00:31:01.000Z,1008.8
2023-04-19T00:32:15.739Z,1008.8
2023-04-19T00:33:30.220Z,1008.8
2023-04-19T00:35:58.000Z,1008.8
2023-04-19T00:37:12.000Z,1008.8
2023-04-19T00:38:27.000Z,1008.7
2023-04-19T00:39:41.000Z,1008.8
2023-04-19T00:40:56.000Z,1008.8
2023-04-19T00:42:10.603Z,1008.8
2023-04-19T00:43:25.000Z,1008.8
2023-04-19T00:44:39.000Z,1008.8
2023-04-19T00:45:54.000Z,1008.8
2023-04-19T00:47:08.478Z,1008.9
2023-04-19T00:48:22.000Z,1008.8
2023-04-19T00:49:37.408Z,1008.8
2023-04-19T00:50:51.000Z,1008.8
2023-04-19T00:52:05.469Z,1008.8
2023-04-19T00:53:19.933Z,1008.8
2023-04-19T00:54:34.405Z,1008.9
2023-04-19T00:57:02.492Z,1008.9
2023-04-19T00:58:16.000Z,1008.9
2023-04-19T00:59:31.413Z,1008.8
2023-04-19T01:00:45.000Z,1008.8
2023-04-19T01:01:59.000Z,1008.8
2023-04-19T01:03:13.957Z,1008.8
2023-04-19T01:04:28.439Z,1008.8
2023-04-19T01:05:42.000Z,1008.7
2023-04-19T01:06:57.000Z,1008.7
2023-04-19T01:08:10.000Z,1008.7
2023-04-19T01:09:25.000Z,1008.7
2023-04-19T01:10:39.892Z,1008.7
2023-04-19T01:11:54.000Z,1008.7
2023-04-19T01:13:08.000Z,1008.7
2023-04-19T01:14:23.294Z,1008.7
2023-04-19T01:15:37.000Z,1008.8
2023-04-19T01:16:52.203Z,1008.7
2023-04-19T01:18:06.000Z,1008.7
2023-04-19T01:19:21.152Z,1008.7
2023-04-19T01:21:50.095Z,1008.7
2023-04-19T01:23:04.570Z,1008.7
2023-04-19T01:25:33.000Z,1008.7
2023-04-19T01:26:47.966Z,1008.7
2023-04-19T01:28:02.000Z,1008.7
2023-04-19T01:29:16.024Z,1008.7
2023-04-19T01:30:30.000Z,1008.7
2023-04-19T01:31:44.960Z,1008.7
2023-04-19T01:32:59.000Z,1008.7
2023-04-19T01:34:13.000Z,1008.7
2023-04-19T01:35:28.000Z,1008.7
2023-04-19T01:36:42.833Z,1008.7
2023-04-19T01:37:57.298Z,1008.7
2023-04-19T01:40:26.000Z,1008.6
2023-04-19T01:41:40.694Z,1008.6
2023-04-19T01:42:54.318Z,1008.6
2023-04-19T01:44:08.772Z,1008.6
2023-04-19T01:45:22.000Z,1008.6
2023-04-19T01:46:36.000Z,1008.7
2023-04-19T01:47:51.299Z,1008.6
2023-04-19T01:49:05.000Z,1008.7
2023-04-19T01:50:20.000Z,1008.6
2023-04-19T01:51:34.000Z,1008.7
2023-04-19T01:55:18.000Z,1008.6
2023-04-19T01:56:32.000Z,1008.6
2023-04-19T01:57:47.023Z,1008.6
2023-04-19T02:00:15.000Z,1008.6
2023-04-19T02:01:29.000Z,1008.6
2023-04-19T02:02:44.035Z,1008.6
2023-04-19T02:03:58.000Z,1008.6
2023-04-19T02:05:12.000Z,1008.6
2023-04-19T02:06:26.000Z,1008.6
2023-04-19T02:07:41.023Z,1008.6
2023-04-19T02:08:55.000Z,1008.6
2023-04-19T02:10:09.000Z,1008.6
2023-04-19T02:11:24.426Z,1008.6
2023-04-19T02:12:38.899Z,1008.6
2023-04-19T02:13:53.000Z,1008.5
2023-04-19T02:15:07.000Z,1008.5
2023-04-19T02:16:22.000Z,1008.5
2023-04-19T02:17:36.765Z,1008.5
2023-04-19T02:18:51.000Z,1008.5
2023-04-19T02:20:05.000Z,1008.5
2023-04-19T02:22:33.764Z,1008.5
2023-04-19T02:23:47.363Z,1008.5
2023-04-19T02:25:01.000Z,1008.5
2023-04-19T02:26:16.000Z,1008.5
2023-04-19T02:28:45.231Z,1008.5
2023-04-19T02:29:59.000Z,1008.5
2023-04-19T02:31:14.000Z,1008.5
2023-04-19T02:32:28.636Z,1008.5
2023-04-19T02:33:43.101Z,1008.5
2023-04-19T02:34:57.000Z,1008.4
2023-04-19T02:36:12.000Z,1008.5
2023-04-19T02:37:26.508Z,1008.5
2023-04-19T02:38:40.000Z,1008.4
2023-04-19T02:39:55.000Z,1008.4
2023-04-19T02:41:09.000Z,1008.4
2023-04-19T02:44:53.000Z,1008.5
2023-04-19T02:46:07.775Z,1008.4
2023-04-19T02:47:22.000Z,1008.4
2023-04-19T02:48:35.000Z,1008.4
2023-04-19T02:49:50.000Z,1008.4
2023-04-19T02:51:04.000Z,1008.4
2023-04-19T02:52:19.237Z,1008.4
2023-04-19T02:53:33.000Z,1008.4
2023-04-19T02:54:48.000Z,1008.4
2023-04-19T02:56:02.647Z,1008.4
2023-04-19T02:57:17.000Z,1008.4
2023-04-19T02:58:31.582Z,1008.4
2023-04-19T02:59:46.000Z,1008.4
2023-04-19T03:01:00.000Z,1008.4
2023-04-19T03:02:14.982Z,1008.4
2023-04-19T03:04:43.924Z,1008.3
2023-04-19T03:05:58.391Z,1008.4
2023-04-19T03:07:12.841Z,1008.4
2023-04-19T03:09:41.000Z,1008.4
2023-04-19T03:12:10.713Z,1008.3
2023-04-19T03:13:24.303Z,1008.3
2023-04-19T03:14:38.000Z,1008.3
2023-04-19T03:15:53.000Z,1008.3
2023-04-19T03:17:07.705Z,1008.3
2023-04-19T03:19:36.000Z,1008.2
2023-04-19T03:20:51.000Z,1008.2
2023-04-19T03:22:05.586Z,1008.3
2023-04-19T03:23:20.000Z,1008.2
2023-04-19T03:24:34.517Z,1008.2
2023-04-19T03:25:49.000Z,1008.2
2023-04-19T03:27:03.460Z,1008.2
2023-04-19T03:28:17.000Z,1008.2
2023-04-19T03:29:32.000Z,1008.2
2023-04-19T03:30:46.000Z,1008.2
2023-04-19T03:34:30.000Z,1008.1
2023-04-19T03:35:44.000Z,1008.1
2023-04-19T03:36:59.177Z,1008.1
2023-04-19T03:38:12.777Z,1008.1
2023-04-19T03:39:27.000Z,1008.1
2023-04-19T03:40:41.000Z,1008.1
2023-04-19T03:41:56.126Z,1008.1
2023-04-19T03:44:25.000Z,1008.1
2023-04-19T03:45:39.000Z,1008.1
2023-04-19T03:46:53.905Z,1008.1
2023-04-19T03:48:08.368Z,1008.1
2023-04-19T03:49:22.000Z,1008.1
2023-04-19T03:50:37.271Z,1008.1
2023-04-19T03:51:51.674Z,1008.1
2023-04-19T03:53:06.099Z,1008
2023-04-19T03:54:20.000Z,1008.1
2023-04-19T03:55:34.000Z,1008
2023-04-19T03:56:48.485Z,1008
2023-04-19T03:58:02.894Z,1008.1
2023-04-19T03:59:17.000Z,1008.1
2023-04-19T04:01:45.260Z,1008.1
2023-04-19T04:02:59.000Z,1008.1
2023-04-19T04:04:13.000Z,1008
2023-04-19T04:05:27.000Z,1008
2023-04-19T04:06:42.000Z,1008
2023-04-19T04:07:56.000Z,1008
2023-04-19T04:09:10.000Z,1008.1
2023-04-19T04:10:25.000Z,1008
2023-04-19T04:11:39.702Z,1008
2023-04-19T04:12:54.000Z,1008.1
2023-04-19T04:14:08.000Z,1008.1
2023-04-19T04:15:22.000Z,1008
2023-04-19T04:16:37.000Z,1008
2023-04-19T04:17:51.000Z,1008
2023-04-19T04:19:06.000Z,1008
2023-04-19T04:20:20.000Z,1008
2023-04-19T04:22:49.443Z,1008
2023-04-19T04:24:02.000Z,1008
2023-04-19T04:25:17.380Z,1008
2023-04-19T04:26:31.798Z,1008.1
2023-04-19T04:27:45.000Z,1008.1
2023-04-19T04:28:58.000Z,1008.1
2023-04-19T04:30:13.000Z,1008.1
2023-04-19T04:31:27.000Z,1008.1
2023-04-19T04:32:42.000Z,1008.2
2023-04-19T04:33:56.000Z,1008.1
2023-04-19T04:36:25.361Z,1008.2
2023-04-19T04:37:39.780Z,1008.1
2023-04-19T04:38:54.191Z,1008.1
2023-04-19T04:40:08.604Z,1008.1
2023-04-19T04:41:23.000Z,1008.1
2023-04-19T04:42:37.445Z,1008.1
2023-04-19T04:43:51.000Z,1008.1
2023-04-19T04:45:05.395Z,1008.1
2023-04-19T04:46:19.000Z,1008.1
2023-04-19T04:47:34.225Z,1008.1
2023-04-19T04:48:48.624Z,1008.1
2023-04-19T04:50:03.000Z,1008.1
2023-04-19T04:51:17.000Z,1008.1
2023-04-19T04:52:31.855Z,1008.1
2023-04-19T04:53:46.000Z,1008.1
2023-04-19T04:55:00.691Z,1008.1
2023-04-19T04:56:15.120Z,1008.1
2023-04-19T04:57:28.666Z,1008
2023-04-19T04:58:43.000Z,1008.1
2023-04-19T04:59:57.499Z,1008.1
2023-04-19T05:01:11.906Z,1008.1
2023-04-19T05:02:26.329Z,1008.1
2023-04-19T05:03:39.854Z,1008.1
2023-04-19T05:04:54.277Z,1008.1
2023-04-19T05:07:23.100Z,1008.1
2023-04-19T05:08:37.000Z,1008
2023-04-19T05:09:51.000Z,1008.1
2023-04-19T05:11:06.000Z,1008.1
2023-04-19T05:12:20.753Z,1008.1
2023-04-19T05:13:35.000Z,1008.1
2023-04-19T05:14:49.000Z,1008.1
2023-04-19T05:16:04.000Z,1008.1
2023-04-19T05:17:18.000Z,1008.1
2023-04-19T05:18:32.000Z,1008.1
2023-04-19T05:19:47.000Z,1008.1
2023-04-19T05:22:15.000Z,1008.1
2023-04-19T05:23:29.600Z,1008.1
2023-04-19T05:24:44.000Z,1008.1
2023-04-19T05:25:58.000Z,1008.1
2023-04-19T05:27:12.842Z,1008.1
2023-04-19T05:28:27.249Z,1008.2
2023-04-19T05:29:41.656Z,1008.1
2023-04-19T05:30:56.087Z,1008.1
2023-04-19T05:32:10.486Z,1008.1
2023-04-19T05:33:24.000Z,1008.1
2023-04-19T05:34:39.309Z,1008.1
2023-04-19T05:35:53.000Z,1008.1
2023-04-19T05:37:08.142Z,1008.1
2023-04-19T05:38:22.000Z,1008
2023-04-19T05:39:36.000Z,1008.1
2023-04-19T05:40:50.000Z,1008.1
2023-04-19T05:42:04.000Z,1008
2023-04-19T05:43:19.332Z,1008
2023-04-19T05:44:33.753Z,1008.1
2023-04-19T05:47:02.569Z,1008
2023-04-19T05:48:17.000Z,1008.1
2023-04-19T05:50:45.000Z,1008
2023-04-19T05:52:00.224Z,1008
2023-04-19T05:53:14.647Z,1008
2023-04-19T05:54:29.070Z,1008
2023-04-19T05:55:43.000Z,1008
2023-04-19T05:56:57.000Z,1008
2023-04-19T05:58:12.000Z,1008
2023-04-19T05:59:26.000Z,1008
2023-04-19T06:00:41.000Z,1008
2023-04-19T06:01:54.660Z,1008
2023-04-19T06:03:09.000Z,1008
2023-04-19T06:04:23.000Z,1008
2023-04-19T06:05:37.000Z,1008
2023-04-19T06:06:52.000Z,1008
2023-04-19T06:08:06.000Z,1007.9
2023-04-19T06:09:21.145Z,1007.9
2023-04-19T06:10:35.000Z,1008
2023-04-19T06:11:49.000Z,1007.9
2023-04-19T06:14:18.000Z,1007.9
2023-04-19T06:15:33.000Z,1007.9
2023-04-19T06:16:46.000Z,1008
2023-04-19T06:18:01.145Z,1007.9
2023-04-19T06:19:15.000Z,1007.9
2023-04-19T06:20:30.001Z,1007.9
2023-04-19T06:22:58.000Z,1007.9
2023-04-19T06:24:13.235Z,1007.9
2023-04-19T06:27:56.000Z,1007.6
2023-04-19T06:30:25.000Z,1007.6
2023-04-19T06:31:38.000Z,1007.5
2023-04-19T06:32:53.000Z,1007.5
2023-04-19T06:34:06.000Z,1007.5
2023-04-19T06:35:21.208Z,1007.5
2023-04-19T06:36:35.000Z,1007.5
2023-04-19T06:39:04.465Z,1007.4
2023-04-19T06:40:18.868Z,1007.6
2023-04-19T06:41:33.000Z,1007.5
2023-04-19T06:42:47.693Z,1007.4
2023-04-19T06:44:02.115Z,1007.4
2023-04-19T06:45:16.000Z,1007.4
2023-04-19T06:46:30.934Z,1007.4
2023-04-19T06:47:45.000Z,1007.4
2023-04-19T06:48:59.772Z,1007.3
2023-04-19T06:50:14.167Z,1007.3
2023-04-19T06:51:28.591Z,1007.3
2023-04-19T06:52:42.113Z,1007.3
2023-04-19T06:53:56.000Z,1007.3
2023-04-19T06:55:10.000Z,1007.3
2023-04-19T06:56:25.000Z,1007.3
2023-04-19T06:57:39.778Z,1007.3
2023-04-19T07:00:07.000Z,1007.3
2023-04-19T07:01:22.000Z,1007.2
2023-04-19T07:02:36.000Z,1007.2
2023-04-19T07:03:50.101Z,1007.2
2023-04-19T07:05:04.000Z,1007.2
2023-04-19T07:06:18.000Z,1007.2
2023-04-19T07:07:33.000Z,1007.2
2023-04-19T07:08:47.000Z,1007.2
2023-04-19T07:10:01.000Z,1007.2
2023-04-19T07:11:15.719Z,1007.2
2023-04-19T07:12:29.270Z,1007.2
2023-04-19T07:13:43.681Z,1007.2
2023-04-19T07:14:58.100Z,1007.1
2023-04-19T07:16:12.000Z,1007.1
2023-04-19T07:17:26.000Z,1007.1
2023-04-19T07:18:41.000Z,1007.1
2023-04-19T07:21:10.156Z,1007.1
2023-04-19T07:22:24.000Z,1007.2
2023-04-19T07:23:39.000Z,1007
2023-04-19T07:28:36.648Z,1007
2023-04-19T07:29:51.000Z,1007.1
2023-04-19T07:31:05.000Z,1007
2023-04-19T07:32:19.000Z,1007
2023-04-19T07:33:34.000Z,1006.9
2023-04-19T07:34:48.000Z,1007.1
2023-04-19T07:36:03.000Z,1007
2023-04-19T07:37:17.000Z,1006.9
2023-04-19T07:38:31.948Z,1006.9
2023-04-19T07:41:00.765Z,1006.9
2023-04-19T07:42:15.000Z,1006.9
2023-04-19T07:43:28.000Z,1006.9
2023-04-19T07:44:43.000Z,1006.9
2023-04-19T07:45:57.000Z,1007
2023-04-19T07:47:11.000Z,1006.9
2023-04-19T07:48:25.523Z,1006.9
2023-04-19T07:49:39.000Z,1006.9
2023-04-19T07:50:54.347Z,1006.9
2023-04-19T07:52:08.000Z,1007
2023-04-19T07:53:23.000Z,1007
2023-04-19T07:54:37.000Z,1006.9
2023-04-19T07:55:52.000Z,1006.9
2023-04-19T07:57:06.419Z,1006.9
2023-04-19T07:58:20.823Z,1006.9
2023-04-19T08:00:49.641Z,1006.9
2023-04-19T08:02:04.000Z,1007
2023-04-19T08:03:18.000Z,1006.8
2023-04-19T08:04:32.000Z,1006.9
2023-04-19T08:07:01.000Z,1006.9
2023-04-19T08:08:16.000Z,1006.9
2023-04-19T08:09:30.000Z,1006.9
2023-04-19T08:10:44.956Z,1006.9
2023-04-19T08:11:58.000Z,1007
2023-04-19T08:13:12.000Z,1006.9
2023-04-19T08:14:27.322Z,1006.8
2023-04-19T08:15:41.727Z,1006.8
2023-04-19T08:16:56.000Z,1006.8
2023-04-19T08:18:10.000Z,1006.8
2023-04-19T08:20:39.385Z,1006.7
2023-04-19T08:21:53.000Z,1006.7
2023-04-19T08:23:08.215Z,1006.8
2023-04-19T08:24:22.000Z,1006.7
2023-04-19T08:25:37.041Z,1006.7
2023-04-19T08:26:50.602Z,1006.7
2023-04-19T08:28:05.006Z,1006.7
2023-04-19T08:29:19.000Z,1006.7
2023-04-19T08:30:33.832Z,1006.7
2023-04-19T08:31:48.000Z,1006.7
2023-04-19T08:33:02.000Z,1006.7
2023-04-19T08:34:17.000Z,1006.7
2023-04-19T08:35:31.000Z,1006.6
2023-04-19T08:36:45.000Z,1006.6
2023-04-19T08:38:00.314Z,1006.6
2023-04-19T08:39:14.000Z,1006.6
2023-04-19T08:40:29.142Z,1006.6
2023-04-19T08:41:43.000Z,1006.6
2023-04-19T08:42:57.000Z,1006.6
2023-04-19T08:44:12.000Z,1006.7
2023-04-19T08:45:26.793Z,1006.6
2023-04-19T08:46:40.000Z,1006.6
2023-04-19T08:47:54.000Z,1006.6
2023-04-19T08:50:23.595Z,1006.6
2023-04-19T08:51:38.000Z,1006.6
2023-04-19T08:54:06.000Z,1006.6
2023-04-19T08:55:21.251Z,1006.5
2023-04-19T08:56:35.000Z,1006.6
2023-04-19T08:57:50.000Z,1006.6
2023-04-19T08:59:04.000Z,1006.6
2023-04-19T09:00:18.890Z,1006.6
2023-04-19T09:01:32.000Z,1006.5
2023-04-19T09:02:46.000Z,1006.5
2023-04-19T09:04:00.000Z,1006.5
2023-04-19T09:05:14.000Z,1006.5
2023-04-19T09:06:29.000Z,1006.7
2023-04-19T09:07:43.000Z,1006.7
2023-04-19T09:10:12.000Z,1006.7
2023-04-19T09:11:26.880Z,1006.7
2023-04-19T09:12:41.000Z,1006.7
2023-04-19T09:13:55.000Z,1006.8
2023-04-19T09:15:10.000Z,1006.8
2023-04-19T09:16:24.658Z,1006.7
2023-04-19T09:17:39.065Z,1006.7
2023-04-19T09:18:53.478Z,1006.7
2023-04-19T09:20:07.905Z,1006.7
2023-04-19T09:21:22.000Z,1006.8
2023-04-19T09:22:36.721Z,1006.7
2023-04-19T09:23:51.000Z,1006.7
2023-04-19T09:25:05.000Z,1006.7
2023-04-19T09:26:19.966Z,1006.7
2023-04-19T09:27:34.000Z,1006.7
2023-04-19T09:28:48.000Z,1006.6
2023-04-19T09:32:32.000Z,1006.7
2023-04-19T09:33:45.000Z,1006.7
2023-04-19T09:36:14.000Z,1006.6
2023-04-19T09:37:28.797Z,1006.5
2023-04-19T09:39:57.000Z,1006.5
2023-04-19T09:41:12.037Z,1006.6
2023-04-19T09:42:26.000Z,1006.5
2023-04-19T09:43:40.000Z,1006.6
2023-04-19T09:44:55.000Z,1006.5
2023-04-19T09:46:09.705Z,1006.4
2023-04-19T09:47:24.000Z,1006.4
2023-04-19T09:48:38.000Z,1006.4
2023-04-19T09:49:52.000Z,1006.4
2023-04-19T09:51:07.000Z,1006.4
2023-04-19T09:52:20.888Z,1006.4
2023-04-19T09:53:35.291Z,1006.4
2023-04-19T09:54:49.000Z,1006.3
2023-04-19T09:56:04.120Z,1006.4
2023-04-19T09:57:18.538Z,1006.3
2023-04-19T09:58:32.000Z,1006.3
2023-04-19T09:59:47.000Z,1006.3
2023-04-19T10:01:01.771Z,1006.2
2023-04-19T10:02:16.000Z,1006.3
2023-04-19T10:04:45.000Z,1006.3
2023-04-19T10:05:59.000Z,1006.2
2023-04-19T10:07:13.000Z,1006.2
2023-04-19T10:08:26.000Z,1006.1
2023-04-19T10:09:40.000Z,1006.1
2023-04-19T10:10:55.000Z,1006.1
2023-04-19T10:12:09.754Z,1006
2023-04-19T10:13:24.000Z,1006
2023-04-19T10:14:38.578Z,1006
2023-04-19T10:15:52.994Z,1006.1
2023-04-19T10:17:07.402Z,1006
2023-04-19T10:18:21.000Z,1006
2023-04-19T10:19:36.000Z,1006
2023-04-19T10:20:50.000Z,1005.8
2023-04-19T10:22:05.067Z,1005.8
2023-04-19T10:24:33.000Z,1005.8
2023-04-19T10:25:47.000Z,1005.8
2023-04-19T10:27:01.851Z,1005.8
2023-04-19T10:28:15.000Z,1005.8
2023-04-19T10:29:29.817Z,1005.8
2023-04-19T10:31:58.000Z,1005.6
2023-04-19T10:33:12.000Z,1005.8
2023-04-19T10:34:26.000Z,1005.8
2023-04-19T10:35:41.000Z,1005.7
2023-04-19T10:36:55.431Z,1005.7
2023-04-19T10:38:09.000Z,1005.7
2023-04-19T10:39:24.000Z,1005.7
2023-04-19T10:40:38.000Z,1005.6
2023-04-19T10:41:53.000Z,1005.7
2023-04-19T10:43:06.000Z,1005.6
2023-04-19T10:44:21.000Z,1005.6
2023-04-19T10:45:35.443Z,1005.6
2023-04-19T10:48:04.271Z,1005.4
2023-04-19T10:49:18.678Z,1005.5
2023-04-19T10:50:33.103Z,1005.5
2023-04-19T10:51:47.503Z,1005.5
2023-04-19T10:53:01.000Z,1005.4
2023-04-19T10:54:16.000Z,1005.4
2023-04-19T10:55:30.761Z,1005.5
2023-04-19T10:56:45.000Z,1005.5
2023-04-19T10:59:13.997Z,1005.5
2023-04-19T11:00:28.406Z,1005.4
2023-04-19T11:01:42.816Z,1005.4
2023-04-19T11:02:57.236Z,1005.4
2023-04-19T11:05:26.056Z,1005.2
2023-04-19T11:06:39.000Z,1005.4
2023-04-19T11:07:53.999Z,1005.3
2023-04-19T11:09:08.000Z,1005.4
2023-04-19T11:11:37.252Z,1005.3
2023-04-19T11:12:51.000Z,1005.2
2023-04-19T11:14:06.000Z,1005.3
2023-04-19T11:15:20.485Z,1005.3
2023-04-19T11:16:34.000Z,1005.3
2023-04-19T11:17:49.307Z,1005.2
2023-04-19T11:19:03.722Z,1005.3
2023-04-19T11:20:18.000Z,1005.2
2023-04-19T11:21:32.545Z,1005.4
2023-04-19T11:22:46.000Z,1005.3
2023-04-19T11:24:00.000Z,1005.2
2023-04-19T11:25:14.000Z,1005.2
2023-04-19T11:26:29.000Z,1005.2
2023-04-19T11:27:43.000Z,1005.2
2023-04-19T11:28:58.000Z,1005.4
2023-04-19T11:30:12.565Z,1005.2
2023-04-19T11:31:26.000Z,1005.2
2023-04-19T11:33:54.956Z,1005.2
2023-04-19T11:35:09.000Z,1005
2023-04-19T11:36:23.000Z,1005.2
2023-04-19T11:37:37.000Z,1005
2023-04-19T11:38:51.733Z,1005.1
2023-04-19T11:40:06.125Z,1005.1
2023-04-19T11:41:20.557Z,1005.1
2023-04-19T11:43:49.375Z,1005
2023-04-19T11:45:03.790Z,1005.1
2023-04-19T11:46:18.198Z,1005
2023-04-19T11:47:32.000Z,1005
2023-04-19T11:48:47.000Z,1005
2023-04-19T11:50:01.000Z,1005
2023-04-19T11:51:15.853Z,1005
2023-04-19T11:52:30.000Z,1005
2023-04-19T11:54:59.090Z,1005
2023-04-19T11:56:13.000Z,1005
2023-04-19T11:57:27.000Z,1004.9
2023-04-19T11:58:42.000Z,1004.9
2023-04-19T11:59:56.000Z,1004.9
2023-04-19T12:01:11.158Z,1004.9
2023-04-19T12:03:39.980Z,1004.8
2023-04-19T12:04:54.000Z,1004.8
2023-04-19T12:06:08.810Z,1004.8
2023-04-19T12:07:23.000Z,1004.8
2023-04-19T12:08:37.000Z,1004.8
2023-04-19T12:09:52.052Z,1004.8
2023-04-19T12:11:06.461Z,1004.9
2023-04-19T12:12:20.000Z,1004.7
2023-04-19T12:13:35.298Z,1004.7
2023-04-19T12:14:49.000Z,1004.8
2023-04-19T12:16:04.113Z,1004.9
2023-04-19T12:18:32.000Z,1004.9
2023-04-19T12:19:46.480Z,1004.7
2023-04-19T12:21:00.000Z,1004.9
2023-04-19T12:22:15.315Z,1004.8
2023-04-19T12:23:29.000Z,1004.8
2023-04-19T12:25:58.540Z,1004.8
2023-04-19T12:28:27.000Z,1004.8
2023-04-19T12:30:56.209Z,1004.7
2023-04-19T12:33:25.000Z,1004.8
2023-04-19T12:35:53.867Z,1004.7
2023-04-19T12:37:08.271Z,1004.7
2023-04-19T12:40:51.519Z,1004.6
2023-04-19T12:42:05.000Z,1004.6
2023-04-19T12:43:20.000Z,1004.6
2023-04-19T12:44:34.000Z,1004.5
2023-04-19T12:45:49.000Z,1004.5
2023-04-19T12:47:03.575Z,1004.5
2023-04-19T12:48:18.000Z,1004.6
2023-04-19T12:49:32.000Z,1004.5
2023-04-19T12:50:46.817Z,1004.5
2023-04-19T12:52:01.232Z,1004.4
2023-04-19T12:53:15.000Z,1004.4
2023-04-19T12:54:30.000Z,1004.2
2023-04-19T12:55:44.478Z,1004.4
2023-04-19T12:58:12.000Z,1004.4
2023-04-19T13:00:40.397Z,1004.3
2023-04-19T13:01:53.966Z,1004.3
2023-04-19T13:03:08.376Z,1004.4
2023-04-19T13:04:22.787Z,1004.3
2023-04-19T13:06:51.000Z,1004.3
2023-04-19T13:08:06.000Z,1004.3
2023-04-19T13:09:20.445Z,1004.1
2023-04-19T13:11:49.263Z,1004.2
2023-04-19T13:13:02.000Z,1004.1
2023-04-19T13:14:17.214Z,1004.2
2023-04-19T13:15:31.628Z,1004.1
2023-04-19T13:16:46.000Z,1004.2
2023-04-19T13:18:00.000Z,1004.1
2023-04-19T13:19:14.000Z,1004.2
2023-04-19T13:20:29.284Z,1004.2
2023-04-19T13:21:43.700Z,1004.2
2023-04-19T13:24:12.000Z,1004.2
2023-04-19T13:25:26.000Z,1004.1
2023-04-19T13:26:41.000Z,1004.1
2023-04-19T13:27:55.000Z,1004.1
2023-04-19T13:30:23.000Z,1004.1
2023-04-19T13:31:38.000Z,1004.1
2023-04-19T13:32:52.000Z,1004.1
2023-04-19T13:34:06.954Z,1004.1
2023-04-19T13:35:21.000Z,1004.2
2023-04-19T13:36:35.000Z,1004.2
2023-04-19T13:37:50.000Z,1004.2
2023-04-19T13:39:04.599Z,1004.2
2023-04-19T13:40:19.016Z,1004.2
2023-04-19T13:41:33.429Z,1004.1
2023-04-19T13:42:47.000Z,1004.1
2023-04-19T13:44:02.000Z,1004.1
2023-04-19T13:45:16.000Z,1004
2023-04-19T13:46:31.075Z,1004
2023-04-19T13:47:45.000Z,1004
2023-04-19T13:48:59.910Z,1004
2023-04-19T13:50:14.000Z,1004
2023-04-19T13:51:28.743Z,1003.9
2023-04-19T13:52:43.000Z,1003.9
2023-04-19T13:53:57.568Z,1003.9
2023-04-19T13:55:11.000Z,1003.9
2023-04-19T13:56:26.379Z,1003.8
2023-04-19T13:57:40.000Z,1003.8
2023-04-19T13:58:55.213Z,1003.7
2023-04-19T14:00:09.000Z,1003.8
2023-04-19T14:01:24.000Z,1003.7
2023-04-19T14:02:37.000Z,1003.8
2023-04-19T14:03:52.004Z,1003.7
2023-04-19T14:05:06.000Z,1003.7
2023-04-19T14:06:19.000Z,1003.7
2023-04-19T14:07:34.000Z,1003.7
2023-04-19T14:08:48.000Z,1003.6
2023-04-19T14:10:03.000Z,1003.7
2023-04-19T14:11:17.000Z,1003.6
2023-04-19T14:12:32.000Z,1003.6
2023-04-19T14:13:46.435Z,1003.5
2023-04-19T14:16:15.000Z,1003.6
2023-04-19T14:17:29.000Z,1003.6
2023-04-19T14:18:44.000Z,1003.6
2023-04-19T14:19:58.000Z,1003.6
2023-04-19T14:21:12.924Z,1003.6
2023-04-19T14:22:26.000Z,1003.6
2023-04-19T14:23:40.862Z,1003.5
2023-04-19T14:24:55.000Z,1003.5
2023-04-19T14:26:09.000Z,1003.5
2023-04-19T14:27:24.098Z,1003.5
2023-04-19T14:28:38.516Z,1003.5
2023-04-19T14:31:07.000Z,1003.5
2023-04-19T14:32:21.000Z,1003.5
2023-04-19T14:33:36.172Z,1003.5
2023-04-19T14:34:50.000Z,1003.5
2023-04-19T14:36:04.995Z,1003.5
2023-04-19T14:37:18.000Z,1003.6
2023-04-19T14:38:32.000Z,1003.7
2023-04-19T14:39:47.000Z,1003.7
2023-04-19T14:41:01.000Z,1004.2
2023-04-19T14:42:15.333Z,1004.3
2023-04-19T14:43:29.745Z,1004.1
2023-04-19T14:44:43.000Z,1004.1
2023-04-19T14:45:57.000Z,1004.1
2023-04-19T14:47:12.116Z,1004.2
2023-04-19T14:48:26.000Z,1004.2
2023-04-19T14:49:40.000Z,1004.4
2023-04-19T14:50:55.000Z,1004.3
2023-04-19T14:52:09.000Z,1004.2
2023-04-19T14:53:24.170Z,1004.2
2023-04-19T14:54:38.586Z,1004.3
2023-04-19T14:55:53.000Z,1004.3
2023-04-19T14:57:07.000Z,1004.3
2023-04-19T14:58:21.000Z,1004.3
2023-04-19T14:59:36.239Z,1004.3
2023-04-19T15:00:50.000Z,1004.5
2023-04-19T15:02:05.000Z,1004.6
2023-04-19T15:03:18.000Z,1004.4
2023-04-19T15:04:33.000Z,1004.3
2023-04-19T15:05:47.000Z,1004.3
2023-04-19T15:07:01.000Z,1004.2
2023-04-19T15:09:30.000Z,1004.2
2023-04-19T15:10:45.000Z,1004.2
2023-04-19T15:11:59.000Z,1004.1
2023-04-19T15:13:13.000Z,1004.2
2023-04-19T15:15:42.000Z,1004.1
2023-04-19T15:16:57.155Z,1004.1
2023-04-19T15:18:11.557Z,1004.1
2023-04-19T15:19:25.000Z,1004.2
2023-04-19T15:20:39.000Z,1004.2
2023-04-19T15:21:53.900Z,1004.2
2023-04-19T15:23:08.000Z,1004.2
2023-04-19T15:24:22.000Z,1004.1
2023-04-19T15:25:37.000Z,1004.1
2023-04-19T15:26:51.000Z,1004.1
2023-04-19T15:28:06.000Z,1004.1
2023-04-19T15:29:20.000Z,1004
2023-04-19T15:30:34.000Z,1004.1
2023-04-19T15:31:49.228Z,1004
2023-04-19T15:33:03.652Z,1004
2023-04-19T15:34:18.000Z,1004.1
2023-04-19T15:35:32.000Z,1004
2023-04-19T15:36:46.000Z,1003.9
2023-04-19T15:38:01.000Z,1003.9
2023-04-19T15:39:15.000Z,1003.9
2023-04-19T15:40:29.000Z,1003.9
2023-04-19T15:41:43.639Z,1003.8
2023-04-19T15:42:58.000Z,1003.8
2023-04-19T15:44:12.000Z,1003.7
2023-04-19T15:45:26.000Z,1003.8
2023-04-19T15:46:41.313Z,1003.7
2023-04-19T15:47:55.000Z,1003.7
2023-04-19T15:49:10.000Z,1003.7
2023-04-19T15:50:24.000Z,1003.6
2023-04-19T15:51:38.000Z,1003.7
2023-04-19T15:52:53.000Z,1003.7
2023-04-19T15:54:07.000Z,1003.6
2023-04-19T15:55:22.000Z,1003.6
2023-04-19T15:56:36.619Z,1003.6
2023-04-19T15:57:51.032Z,1003.6
2023-04-19T15:59:05.000Z,1003.6
2023-04-19T16:00:19.000Z,1003.6
2023-04-19T16:02:47.000Z,1003.6
2023-04-19T16:04:02.000Z,1003.6
2023-04-19T16:05:16.000Z,1003.6
2023-04-19T16:06:31.000Z,1003.6
2023-04-19T16:07:45.000Z,1003.6
2023-04-19T16:10:14.000Z,1003.6
2023-04-19T16:11:28.000Z,1003.6
2023-04-19T16:12:43.000Z,1003.5
2023-04-19T16:13:57.000Z,1003.5
2023-04-19T16:15:11.000Z,1003.6
2023-04-19T16:16:26.377Z,1003.5
2023-04-19T16:17:40.000Z,1003.5
2023-04-19T16:18:55.000Z,1003.6
2023-04-19T16:20:09.000Z,1003.6
2023-04-19T16:21:24.149Z,1003.5
2023-04-19T16:22:38.000Z,1003.5
2023-04-19T16:23:52.000Z,1003.5
2023-04-19T16:25:07.379Z,1003.5
2023-04-19T16:26:21.792Z,1003.5
2023-04-19T16:27:36.000Z,1003.5
2023-04-19T16:28:50.000Z,1003.5
2023-04-19T16:30:05.000Z,1003.5
2023-04-19T16:31:19.000Z,1003.5
2023-04-19T16:32:33.000Z,1003.5
2023-04-19T16:33:48.000Z,1003.5
2023-04-19T16:35:01.000Z,1003.5
2023-04-19T16:36:16.222Z,1003.5
2023-04-19T16:37:30.000Z,1003.4
2023-04-19T16:39:59.000Z,1003.5
2023-04-19T16:41:13.875Z,1003.4
2023-04-19T16:42:28.000Z,1003.4
2023-04-19T16:43:42.000Z,1003.4
2023-04-19T16:44:57.000Z,1003.4
2023-04-19T16:46:11.543Z,1003.4
2023-04-19T16:47:25.000Z,1003.4
2023-04-19T16:48:40.000Z,1003.4
2023-04-19T16:49:54.775Z,1003.4
2023-04-19T16:51:09.180Z,1003.4
2023-04-19T16:52:22.000Z,1003.4
2023-04-19T16:54:51.000Z,1003.5
2023-04-19T16:56:05.959Z,1003.4
2023-04-19T16:57:20.371Z,1003.4
2023-04-19T16:59:49.000Z,1003.4
2023-04-19T17:01:03.616Z,1003.4
2023-04-19T17:02:18.000Z,1003.4
2023-04-19T17:03:31.000Z,1003.4
2023-04-19T17:04:45.000Z,1003.3
2023-04-19T17:05:59.000Z,1003.3
2023-04-19T17:07:13.934Z,1003.3
2023-04-19T17:08:28.000Z,1003.3
2023-04-19T17:09:42.000Z,1003.3
2023-04-19T17:10:57.000Z,1003.4
2023-04-19T17:12:11.608Z,1003.3
2023-04-19T17:13:26.000Z,1003.3
2023-04-19T17:14:40.000Z,1003.3
2023-04-19T17:15:54.000Z,1003.3
2023-04-19T17:17:08.000Z,1003.3
2023-04-19T17:18:21.000Z,1003.3
2023-04-19T17:19:36.000Z,1003.4